Tarrants, Missouri
Current Conditions -  °F | °C
As of 4:15 AM on Saturday 22 Nov 2014 (Local Time) from KPPQ Reporting Station
Overcast Overcast  
Wind Chill: 39°   Ceiling: 2700
Heat Index: 43°   Visibility: 7mi
Dew Point: 40°   Wind: 7mph
Humidity: 89%   Direction: 180°S
Pressure: 30.09"   Gusts: NA
Location:  39.321°N, 91.1912°W
Report Text: KPPQ 221015Z AUTO 18006KT 7SM OVC027 06/05 A3009 RMK AO2 T00630046 PWINO
Loading
Personal Weather Stations






























Interactive Weather Map New forecast layout! Learn more

10-Day Weather Forecast

Advertisements
Track Severe Weather on mobile